Data for 12/05/2016

Time Sea-Level Adjusted Pressure Absolute Pressure Temperature Relative Humidity Dew Point   
(mb) (inHg) (mb) (inHg) (C) (F) (%) (C) (F)
00:05 1006 29.71 836 24.69 -1.9 28.6 63 -8.1 17.4
00:10 1006 29.71 835 24.66 -1.9 28.5 63 -8 17.7
00:15 1006 29.71 835 24.66 -1.9 28.5 62 -8.2 17.2
00:20 1006 29.71 836 24.69 -1.9 28.5 61 -8.4 16.8
00:25 1006 29.71 836 24.69 -1.9 28.6 62 -8.3 17.1
00:30 1007 29.74 836 24.69 -2 28.5 61 -8.5 16.7
00:35 1007 29.74 836 24.69 -2 28.4 60 -8.7 16.3
00:40 1007 29.74 836 24.69 -2 28.3 59 -8.9 15.9
00:45 1007 29.74 836 24.69 -2 28.4 59 -9 15.9
00:50 1007 29.74 836 24.69 -2 28.4 54 -10.1 13.9
00:55 1007 29.74 836 24.69 -2.1 28.1 59 -9.1 15.6
01:00 1007 29.74 836 24.69 -2.5 27.5 57 -9.9 14.2
01:05 1007 29.74 836 24.69 -2.7 27.2 63 -8.8 16.1
01:10 1007 29.74 836 24.69 -3.2 26.2 65 -9 15.8
01:15 1007 29.74 836 24.69 -3.4 25.9 61 -9.8 14.4
01:20 1007 29.74 836 24.69 -3.1 26.4 57 -10.6 13
01:25 1007 29.74 836 24.69 -2.8 27 56 -10.4 13.2
01:30 1007 29.74 836 24.69 -2.7 27.2 55 -10.4 13.3
01:35 1007 29.74 836 24.69 -2.6 27.3 57 -10.1 13.8
01:40 1007 29.74 836 24.69 -2.7 27.2 56 -10.3 13.5
01:45 1007 29.74 836 24.69 -2.7 27.1 51 -11.5 11.4
01:50 1007 29.74 836 24.69 -2.8 27 48 -12.3 9.8
01:55 1007 29.74 836 24.69 -2.8 26.9 47 -12.7 9.2
02:00 1007 29.74 836 24.69 -2.9 26.7 46 -13 8.5
02:05 1007 29.74 836 24.69 -3 26.6 45 -13.3 8
02:10 1007 29.74 836 24.69 -3.1 26.5 45 -13.4 7.8
02:15 1007 29.74 837 24.72 -3.2 26.3 47 -13.1 8.5
02:20 1007 29.74 837 24.72 -3.3 26.1 46 -13.3 8
02:25 1007 29.74 837 24.72 -3.3 26 44 -14 6.9
02:30 1008 29.77 837 24.72 -3.4 25.9 44 -14.1 6.5
02:35 1008 29.77 837 24.72 -3.5 25.7 43 -14.4 6.1
02:40 1008 29.77 837 24.72 -3.6 25.6 43 -14.4 6
02:45 1008 29.77 837 24.72 -3.6 25.5 43 -14.4 6.2
02:50 1008 29.77 837 24.72 -3.7 25.3 43 -14.5 6
02:55 1008 29.77 837 24.72 -3.8 25.2 46 -13.8 7.1
03:00 1008 29.77 837 24.72 -3.9 25.1 45 -14.1 6.5
03:05 1008 29.77 837 24.72 -3.9 24.9 44 -14.4 6.1
03:10 1008 29.77 837 24.72 -4.1 24.7 42 -15.2 4.7
03:15 1008 29.77 838 24.75 -4.2 24.4 42 -15.3 4.5
03:20 1009 29.8 838 24.75 -4.3 24.2 42 -15.5 4
03:25 1009 29.8 838 24.75 -4.3 24.2 43 -15.1 4.8
03:30 1009 29.8 838 24.75 -4.4 24.1 45 -14.8 5.4
03:35 1009 29.8 838 24.75 -4.5 23.8 48 -14.1 6.7
03:40 1009 29.8 838 24.75 -4.6 23.6 47 -14.4 6
03:45 1009 29.8 838 24.75 -4.7 23.5 44 -15.1 4.8
03:50 1009 29.8 838 24.75 -4.8 23.3 43 -15.6 3.8
03:55 1009 29.8 838 24.75 -4.9 23.2 43 -15.6 3.9
04:00 1009 29.8 838 24.75 -4.9 23.1 44 -15.4 4.3
04:05 1009 29.8 838 24.75 -5 23 46 -14.9 5.1
04:10 1009 29.8 838 24.75 -5 22.9 46 -15 5
04:15 1009 29.8 838 24.75 -5.2 22.7 47 -14.9 5.2
04:20 1009 29.8 838 24.75 -5.3 22.5 47 -15 5.1
04:25 1009 29.8 838 24.75 -5.4 22.3 49 -14.5 6
04:30 1009 29.8 839 24.78 -5.3 22.4 48 -14.7 5.6
04:35 1009 29.8 839 24.78 -5.3 22.5 49 -14.5 5.9
04:40 1009 29.8 839 24.78 -5.3 22.4 49 -14.3 6.2
04:45 1009 29.8 839 24.78 -5.4 22.3 51 -14.1 6.6
04:50 1009 29.8 839 24.78 -5.5 22.1 51 -14.1 6.5
04:55 1009 29.8 839 24.78 -5.5 22 49 -14.6 5.8
05:00 1009 29.8 839 24.78 -5.6 22 49 -14.7 5.5
05:05 1009 29.8 839 24.78 -5.6 21.9 49 -14.8 5.4
05:10 1010 29.83 839 24.78 -5.6 21.9 49 -14.8 5.4
05:15 1010 29.83 839 24.78 -5.6 22 48 -14.9 5.2
05:20 1010 29.83 839 24.78 -5.6 21.9 48 -15 5.1
05:25 1010 29.83 839 24.78 -5.6 21.8 48 -15.1 4.8
05:30 1010 29.83 839 24.78 -5.7 21.7 48 -15 5
05:35 1010 29.83 839 24.78 -5.7 21.7 48 -15 5
05:40 1010 29.83 839 24.78 -5.7 21.7 50 -14.6 5.7
05:45 1010 29.83 839 24.78 -5.8 21.6 50 -14.7 5.5
05:50 1010 29.83 839 24.78 -5.8 21.6 51 -14.5 5.9
05:55 1010 29.83 839 24.78 -5.8 21.5 51 -14.4 6.1
06:00 1010 29.83 839 24.78 -5.9 21.4 51 -14.4 6
06:05 1010 29.83 839 24.78 -5.9 21.4 51 -14.5 5.9
06:10 1010 29.83 839 24.78 -5.9 21.3 50 -14.7 5.6
06:15 1010 29.83 839 24.78 -6 21.3 50 -14.8 5.4
06:20 1010 29.83 839 24.78 -6 21.2 52 -14.4 6
06:25 1010 29.83 839 24.78 -6 21.2 50 -14.9 5.1
06:30 1010 29.83 839 24.78 -6 21.1 48 -15.3 4.5
06:35 1010 29.83 839 24.78 -6 21.3 47 -15.7 3.8
06:40 1010 29.83 839 24.78 -6 21.3 44 -16.3 2.6
06:45 1010 29.83 839 24.78 -6 21.2 44 -16.3 2.7
06:50 1010 29.83 839 24.78 -6 21.2 44 -16.3 2.6
06:55 1010 29.83 840 24.81 -6.1 21 44 -16.6 2.2
07:00 1011 29.85 840 24.81 -6.1 21 45 -16.3 2.6
07:05 1011 29.85 840 24.81 -6.2 20.9 47 -15.8 3.6
07:10 1011 29.85 840 24.81 -6.3 20.7 52 -14.6 5.7
07:15 1011 29.85 840 24.81 -6.3 20.6 58 -13.4 8
07:20 1011 29.85 840 24.81 -6.4 20.5 61 -12.7 9.1
07:25 1011 29.85 840 24.81 -6.4 20.5 63 -12.4 9.7
07:30 1011 29.85 841 24.83 -6.4 20.4 64 -12.1 10.3
07:35 1011 29.85 841 24.83 -6.5 20.3 65 -11.9 10.5
07:40 1012 29.88 841 24.83 -6.5 20.2 65 -12 10.4
07:45 1012 29.88 841 24.83 -6.6 20 65 -12.1 10.2
07:50 1012 29.88 841 24.83 -6.7 19.9 65 -12.2 10.1
07:55 1012 29.88 841 24.83 -6.7 19.9 65 -12.2 10.1
08:00 1012 29.88 841 24.83 -6.7 19.9 66 -12.1 10.3
08:05 1012 29.88 841 24.83 -6.8 19.8 66 -12.1 10.3
08:10 1012 29.88 841 24.83 -6.8 19.8 67 -11.9 10.6
08:15 1012 29.88 841 24.83 -6.8 19.7 69 -11.6 11.1
08:20 1012 29.88 841 24.83 -6.9 19.6 71 -11.2 11.8
08:25 1012 29.88 841 24.83 -7 19.4 73 -11.1 12
08:30 1012 29.88 842 24.86 -7.2 19.1 73 -11.2 11.9
08:35 1012 29.88 842 24.86 -7.2 19.1 74 -11 12.2
08:40 1012 29.88 842 24.86 -7.2 19 74 -11 12.2
08:45 1013 29.91 842 24.86 -7.2 19 74 -11 12.2
08:50 1013 29.91 842 24.86 -7.2 19 75 -11 12.2
08:55 1013 29.91 842 24.86 -7.2 19 75 -10.9 12.3
09:00 1013 29.91 842 24.86 -7.3 18.9 76 -10.8 12.6
09:05 1013 29.91 842 24.86 -7.3 18.8 78 -10.5 13.1
09:10 1013 29.91 842 24.86 -7.4 18.8 79 -10.4 13.3
09:15 1013 29.91 842 24.86 -7.4 18.6 80 -10.3 13.5
09:20 1013 29.91 842 24.86 -7.6 18.4 81 -10.2 13.6
09:25 1013 29.91 843 24.89 -7.7 18.1 82 -10.3 13.4
09:30 1013 29.91 843 24.89 -7.8 18 81 -10.4 13.2
09:35 1013 29.91 843 24.89 -7.8 17.9 83 -10.3 13.5
09:40 1014 29.94 843 24.89 -7.9 17.8 84 -10.2 13.6
09:45 1014 29.94 843 24.89 -7.9 17.8 84 -10.2 13.6
09:50 1014 29.94 843 24.89 -8 17.6 83 -10.3 13.4
09:55 1014 29.94 843 24.89 -7.9 17.7 80 -10.7 12.7
10:00 1014 29.94 843 24.89 -7.8 18 79 -10.9 12.5
10:05 1014 29.94 843 24.89 -7.9 17.8 81 -10.7 12.8
10:10 1014 29.94 843 24.89 -8 17.6 81 -10.7 12.8
10:15 1014 29.94 843 24.89 -8 17.6 80 -10.8 12.5
10:20 1014 29.94 843 24.89 -8.1 17.4 81 -10.8 12.6
10:25 1014 29.94 843 24.89 -8.2 17.3 80 -11 12.2
10:30 1014 29.94 843 24.89 -8.1 17.4 78 -11.3 11.6
10:35 1014 29.94 843 24.89 -8.2 17.3 77 -11.5 11.3
10:40 1014 29.94 844 24.92 -8.1 17.5 77 -11.4 11.5
10:45 1015 29.97 844 24.92 -7.8 18 75 -11.4 11.4
10:50 1015 29.97 844 24.92 -7.8 17.9 75 -11.5 11.3
10:55 1015 29.97 844 24.92 -7.8 17.9 75 -11.5 11.3
11:00 1015 29.97 844 24.92 -7.7 18.1 75 -11.5 11.4
11:05 1015 29.97 844 24.92 -7.7 18.1 75 -11.4 11.5
11:10 1015 29.97 844 24.92 -7.7 18.2 74 -11.6 11.2
11:15 1015 29.97 844 24.92 -7.7 18.1 73 -11.7 10.9
11:20 1015 29.97 844 24.92 -7.6 18.2 72 -11.9 10.5
11:25 1015 29.97 844 24.92 -7.5 18.5 71 -11.9 10.6
11:30 1015 29.97 844 24.92 -7.4 18.8 68 -12.3 9.9
11:35 1015 29.97 844 24.92 -7.2 19 68 -12.1 10.3
11:40 1015 29.97 844 24.92 -7.1 19.3 65 -12.6 9.3
11:45 1015 29.97 844 24.92 -7.1 19.3 65 -12.6 9.4
11:50 1015 29.97 844 24.92 -6.9 19.6 63 -12.8 8.9
11:55 1015 29.97 844 24.92 -6.8 19.7 63 -12.7 9.1
12:00 1015 29.97 844 24.92 -6.7 20 64 -12.4 9.7
12:05 1015 29.97 844 24.92 -6.7 20 66 -12 10.5
12:10 1015 29.97 844 24.92 -6.7 19.9 66 -12 10.5
12:15 1015 29.97 844 24.92 -7.1 19.2 70 -11.7 10.9
12:20 1015 29.97 844 24.92 -7.3 18.8 71 -11.8 10.8
12:25 1015 29.97 844 24.92 -7.2 19.1 69 -12 10.5
12:30 1015 29.97 844 24.92 -6.9 19.6 65 -12.4 9.7
12:35 1015 29.97 844 24.92 -7 19.3 65 -12.6 9.3
12:40 1015 29.97 844 24.92 -7 19.5 64 -12.7 9.2
12:45 1015 29.97 844 24.92 -6.9 19.5 64 -12.6 9.3
12:50 1015 29.97 844 24.92 -7.1 19.3 67 -12.3 9.9
12:55 1015 29.97 844 24.92 -6.8 19.8 67 -12 10.4
13:00 1015 29.97 844 24.92 -6.7 19.9 66 -12 10.5
13:05 1015 29.97 844 24.92 -6.8 19.8 66 -12.2 10.1
13:10 1015 29.97 844 24.92 -6.7 20 65 -12.2 10
13:15 1015 29.97 844 24.92 -6.9 19.7 62 -12.9 8.8
13:20 1015 29.97 844 24.92 -6.5 20.3 57 -13.7 7.3
13:25 1015 29.97 844 24.92 -6 21.3 55 -13.7 7.3
13:30 1015 29.97 844 24.92 -5.7 21.7 50 -14.5 5.9
13:35 1015 29.97 844 24.92 -5.7 21.8 46 -15.4 4.2
13:40 1015 29.97 844 24.92 -5.5 22.1 47 -15.1 4.9
13:45 1015 29.97 844 24.92 -5.5 22.1 49 -14.6 5.6
13:50 1015 29.97 844 24.92 -5.3 22.4 45 -15.6 3.9
13:55 1015 29.97 844 24.92 -5.2 22.7 44 -15.5 4.1
14:00 1015 29.97 844 24.92 -5 22.9 42 -16.1 3.1
14:05 1015 29.97 844 24.92 -5.1 22.8 41 -16.4 2.4
14:10 1015 29.97 844 24.92 -5.2 22.7 41 -16.5 2.3
14:15 1015 29.97 844 24.92 -5.1 22.8 39 -17.1 1.3
14:20 1015 29.97 844 24.92 -5.3 22.5 38 -17.6 0.4
14:25 1015 29.97 844 24.92 -5.1 22.7 39 -17.1 1.3
14:30 1015 29.97 844 24.92 -5 23 37 -17.7 0.2
14:35 1015 29.97 844 24.92 -4.7 23.5 39 -16.7 2
14:40 1015 29.97 844 24.92 -4.7 23.5 39 -16.8 1.8
14:45 1015 29.97 844 24.92 -4.7 23.5 39 -16.6 2.2
14:50 1015 29.97 844 24.92 -5 23 41 -16.3 2.7
14:55 1015 29.97 844 24.92 -5.1 22.8 41 -16.5 2.2
15:00 1015 29.97 844 24.92 -5 23.1 40 -16.6 2.2
15:05 1015 29.97 844 24.92 -4.7 23.6 38 -17 1.3
15:10 1015 29.97 844 24.92 -4.9 23.2 35 -18.1 -0.6
15:15 1015 29.97 844 24.92 -4.8 23.3 38 -17 1.4
15:20 1015 29.97 844 24.92 -4.3 24.3 33 -18.2 -0.8
15:25 1015 29.97 844 24.92 -4.3 24.2 32 -18.7 -1.7
15:30 1015 29.97 844 24.92 -4.3 24.3 34 -17.9 -0.3
15:35 1015 29.97 844 24.92 -4.1 24.7 34 -17.8 -0.1
15:40 1015 29.97 844 24.92 -4 24.8 34 -17.7 0.2
15:45 1015 29.97 844 24.92 -4.2 24.4 34 -18 -0.4
15:50 1015 29.97 844 24.92 -5 23 36 -17.8 -0.1
15:55 1015 29.97 844 24.92 -5.1 22.9 41 -16.2 2.8
16:00 1015 29.97 844 24.92 -5 23 45 -15.1 4.7
16:05 1015 29.97 844 24.92 -5.4 22.3 44 -15.9 3.4
16:10 1015 29.97 844 24.92 -5.9 21.3 47 -15.5 4.1
16:15 1015 29.97 844 24.92 -6.3 20.6 51 -14.8 5.3
16:20 1015 29.97 844 24.92 -6 21.3 48 -15.4 4.3
16:25 1015 29.97 844 24.92 -5.7 21.8 44 -15.9 3.3
16:30 1015 29.97 844 24.92 -6.2 20.9 48 -15.5 4.1
16:35 1015 29.97 844 24.92 -6.5 20.3 46 -16.2 2.8
16:40 1015 29.97 844 24.92 -6.6 20.1 49 -15.6 3.9
16:45 1015 29.97 844 24.92 -6.4 20.4 48 -15.8 3.6
16:50 1015 29.97 844 24.92 -6.4 20.4 47 -16 3.3
16:55 1015 29.97 844 24.92 -6.7 19.9 47 -16.3 2.7
17:00 1015 29.97 844 24.92 -6.8 19.8 48 -16.2 2.9
17:05 1015 29.97 844 24.92 -6.8 19.8 49 -15.8 3.6
17:10 1015 29.97 844 24.92 -6.8 19.8 49 -15.8 3.5
17:15 1015 29.97 844 24.92 -6.8 19.8 48 -16 3.2
17:20 1015 29.97 844 24.92 -6.8 19.7 47 -16.3 2.6
17:25 1015 29.97 844 24.92 -6.8 19.7 47 -16.5 2.4
17:30 1015 29.97 844 24.92 -6.8 19.8 48 -16.1 3.1
17:35 1015 29.97 844 24.92 -7 19.5 47 -16.4 2.6
17:40 1015 29.97 844 24.92 -7.1 19.3 49 -16.2 2.8
17:45 1015 29.97 844 24.92 -7.1 19.3 50 -15.7 3.7
17:50 1015 29.97 844 24.92 -7.1 19.3 49 -16.1 3.1
17:55 1015 29.97 844 24.92 -7 19.3 50 -15.9 3.4
18:00 1015 29.97 844 24.92 -7.1 19.2 50 -15.9 3.4
18:05 1015 29.97 844 24.92 -7.3 18.9 49 -16.2 2.8
18:10 1015 29.97 844 24.92 -7.4 18.7 51 -16 3.2
18:15 1015 29.97 844 24.92 -7.4 18.7 51 -15.8 3.5
18:20 1015 29.97 844 24.92 -7.5 18.5 52 -15.8 3.5
18:25 1015 29.97 844 24.92 -7.5 18.5 53 -15.4 4.2
18:30 1015 29.97 844 24.92 -7.9 17.7 57 -15 5.1
18:35 1015 29.97 844 24.92 -8.3 17.1 58 -15.1 4.8
18:40 1015 29.97 844 24.92 -8.4 16.8 56 -15.7 3.7
18:45 1015 29.97 844 24.92 -8.4 17 55 -16 3.2
18:50 1015 29.97 844 24.92 -8.3 17 56 -15.6 3.9
18:55 1015 29.97 844 24.92 -8.2 17.2 53 -16.1 3
19:00 1015 29.97 844 24.92 -8.2 17.2 54 -16 3.3
19:05 1015 29.97 844 24.92 -8.1 17.4 54 -15.8 3.6
19:10 1015 29.97 844 24.92 -7.9 17.9 53 -15.9 3.3
19:15 1015 29.97 844 24.92 -7.8 18 55 -15.3 4.4
19:20 1015 29.97 844 24.92 -7.7 18.2 55 -15.3 4.4
19:25 1015 29.97 844 24.92 -7.4 18.7 56 -14.7 5.6
19:30 1015 29.97 844 24.92 -7.2 19.1 54 -14.9 5.2
19:35 1015 29.97 844 24.92 -7 19.5 53 -15 5
19:40 1015 29.97 844 24.92 -6.7 19.9 53 -14.8 5.3
19:45 1015 29.97 844 24.92 -6.7 20 53 -14.9 5.3
19:50 1015 29.97 844 24.92 -6.7 19.9 53 -14.8 5.3
19:55 1015 29.97 844 24.92 -6.7 19.9 53 -14.8 5.4
20:00 1015 29.97 844 24.92 -6.8 19.8 55 -14.4 6.1
20:05 1015 29.97 844 24.92 -6.8 19.8 55 -14.4 6.1
20:10 1015 29.97 844 24.92 -6.7 20 55 -14.3 6.3
20:15 1015 29.97 844 24.92 -6.7 20 58 -13.5 7.6
20:20 1015 29.97 844 24.92 -6.9 19.6 62 -13 8.6
20:25 1015 29.97 844 24.92 -7.1 19.3 68 -12 10.5
20:30 1015 29.97 844 24.92 -7.4 18.8 72 -11.5 11.3
20:35 1015 29.97 844 24.92 -7.5 18.4 73 -11.6 11.1
20:40 1015 29.97 844 24.92 -7.5 18.6 71 -11.8 10.7
20:45 1015 29.97 844 24.92 -7.4 18.7 73 -11.5 11.3
20:50 1015 29.97 844 24.92 -7.4 18.7 75 -11.1 11.9
20:55 1015 29.97 844 24.92 -7.4 18.6 76 -11 12.2
21:00 1015 29.97 844 24.92 -7.5 18.6 76 -11 12.2
21:05 1015 29.97 844 24.92 -7.6 18.3 77 -10.9 12.4
21:10 1015 29.97 844 24.92 -7.6 18.3 78 -10.9 12.4
21:15 1015 29.97 844 24.92 -7.7 18.1 78 -10.9 12.4
21:20 1015 29.97 844 24.92 -7.9 17.8 80 -10.8 12.6
21:25 1015 29.97 844 24.92 -7.9 17.8 79 -10.9 12.4
21:30 1015 29.97 844 24.92 -7.9 17.8 81 -10.7 12.8
21:35 1015 29.97 844 24.92 -8.1 17.4 83 -10.6 13
21:40 1015 29.97 844 24.92 -8.5 16.8 84 -10.8 12.6
21:45 1015 29.97 844 24.92 -8.5 16.7 84 -10.7 12.7
21:50 1015 29.97 845 24.95 -8.5 16.6 84 -10.7 12.7
21:55 1015 29.97 845 24.95 -8.4 17 83 -10.7 12.8
22:00 1015 29.97 845 24.95 -8.2 17.3 79 -11.1 12
22:05 1015 29.97 845 24.95 -8.4 16.9 80 -11.3 11.7
22:10 1015 29.97 845 24.95 -8.5 16.8 79 -11.4 11.4
22:15 1015 29.97 845 24.95 -8.6 16.4 79 -11.6 11.1
22:20 1015 29.97 845 24.95 -8.7 16.3 79 -11.7 10.9
22:25 1015 29.97 845 24.95 -8.8 16.2 80 -11.7 11
22:30 1015 29.97 845 24.95 -8.9 16 80 -11.7 11
22:35 1015 29.97 845 24.95 -9 15.9 82 -11.6 11.2
22:40 1015 29.97 845 24.95 -9 15.8 83 -11.5 11.4
22:45 1015 29.97 845 24.95 -9 15.9 82 -11.4 11.4
22:50 1016 30 845 24.95 -8.9 15.9 82 -11.4 11.4
22:55 1016 30 845 24.95 -8.8 16.1 82 -11.4 11.6
23:00 1016 30 845 24.95 -8.7 16.3 81 -11.4 11.5
23:05 1016 30 845 24.95 -8.7 16.3 82 -11.3 11.6
23:10 1016 30 845 24.95 -8.7 16.3 82 -11.3 11.7
23:15 1016 30 845 24.95 -8.7 16.3 81 -11.4 11.5
23:20 1016 30 845 24.95 -8.8 16.3 82 -11.2 11.8
23:25 1016 30 845 24.95 -8.8 16.2 83 -11.2 11.8
23:30 1016 30 845 24.95 -8.9 16 82 -11.4 11.5
23:35 1016 30 845 24.95 -9.1 15.7 82 -11.6 11.2
23:40 1016 30 845 24.95 -9.2 15.5 82 -11.7 10.9
23:45 1016 30 845 24.95 -9.2 15.5 81 -11.8 10.8
23:50 1016 30 845 24.95 -9.1 15.7 82 -11.7 11
23:55 1016 30 845 24.95 -9 15.7 81 -11.7 11
24:00 1016 30 845 24.95 -9 15.9 81 -11.6 11.1